sensor_id;sensor_type;location;lat;lon;timestamp;pressure;altitude;pressure_sealevel;temperature;humidity
7026;BME280;3554;42.132;24.786;2023-02-15T00:01:29;100600.28;;;4.68;100.00
7026;BME280;3554;42.132;24.786;2023-02-15T00:03:57;100606.34;;;4.70;100.00
7026;BME280;3554;42.132;24.786;2023-02-15T00:06:24;100606.28;;;4.58;100.00
7026;BME280;3554;42.132;24.786;2023-02-15T00:08:51;100608.91;;;4.64;100.00
7026;BME280;3554;42.132;24.786;2023-02-15T00:11:19;100614.91;;;4.60;100.00
7026;BME280;3554;42.132;24.786;2023-02-15T00:14:05;100577.69;;;4.36;100.00
7026;BME280;3554;42.132;24.786;2023-02-15T00:16:33;100610.53;;;4.41;100.00
7026;BME280;3554;42.132;24.786;2023-02-15T00:19:01;100595.00;;;4.41;100.00
7026;BME280;3554;42.132;24.786;2023-02-15T00:21:29;100615.75;;;4.47;100.00
7026;BME280;3554;42.132;24.786;2023-02-15T00:23:56;100618.31;;;4.36;100.00
7026;BME280;3554;42.132;24.786;2023-02-15T00:26:23;100617.44;;;4.35;100.00
7026;BME280;3554;42.132;24.786;2023-02-15T00:28:51;100612.25;;;4.34;100.00
7026;BME280;3554;42.132;24.786;2023-02-15T00:31:17;100611.41;;;4.40;100.00
7026;BME280;3554;42.132;24.786;2023-02-15T00:33:44;100607.97;;;4.47;100.00
7026;BME280;3554;42.132;24.786;2023-02-15T00:36:13;100607.94;;;4.45;100.00
7026;BME280;3554;42.132;24.786;2023-02-15T00:38:40;100611.38;;;4.35;100.00
7026;BME280;3554;42.132;24.786;2023-02-15T00:41:08;100614.84;;;4.40;100.00
7026;BME280;3554;42.132;24.786;2023-02-15T00:43:35;100621.75;;;4.36;100.00
7026;BME280;3554;42.132;24.786;2023-02-15T00:46:03;100620.03;;;4.40;100.00
7026;BME280;3554;42.132;24.786;2023-02-15T00:48:30;100618.31;;;4.38;100.00
7026;BME280;3554;42.132;24.786;2023-02-15T00:50:58;100619.16;;;4.36;100.00
7026;BME280;3554;42.132;24.786;2023-02-15T00:53:28;100604.44;;;4.29;100.00
7026;BME280;3554;42.132;24.786;2023-02-15T00:55:55;100613.97;;;4.36;100.00
7026;BME280;3554;42.132;24.786;2023-02-15T00:58:22;100583.69;;;4.23;100.00
7026;BME280;3554;42.132;24.786;2023-02-15T01:00:49;100607.94;;;4.39;100.00
7026;BME280;3554;42.132;24.786;2023-02-15T01:03:16;100595.88;;;4.43;100.00
7026;BME280;3554;42.132;24.786;2023-02-15T01:05:43;100605.41;;;4.51;100.00
7026;BME280;3554;42.132;24.786;2023-02-15T01:08:10;100601.94;;;4.45;100.00
7026;BME280;3554;42.132;24.786;2023-02-15T01:10:38;100607.94;;;4.45;100.00
7026;BME280;3554;42.132;24.786;2023-02-15T01:13:06;100584.66;;;4.50;100.00
7026;BME280;3554;42.132;24.786;2023-02-15T01:15:34;100576.84;;;4.39;100.00
7026;BME280;3554;42.132;24.786;2023-02-15T01:18:01;100591.56;;;4.45;100.00
7026;BME280;3554;42.132;24.786;2023-02-15T01:20:28;100588.09;;;4.43;100.00
7026;BME280;3554;42.132;24.786;2023-02-15T01:22:56;100582.91;;;4.47;100.00
7026;BME280;3554;42.132;24.786;2023-02-15T01:25:25;100566.47;;;4.42;100.00
7026;BME280;3554;42.132;24.786;2023-02-15T01:27:53;100576.88;;;4.47;100.00
7026;BME280;3554;42.132;24.786;2023-02-15T01:30:20;100579.47;;;4.50;100.00
7026;BME280;3554;42.132;24.786;2023-02-15T01:32:46;100572.56;;;4.52;100.00
7026;BME280;3554;42.132;24.786;2023-02-15T01:35:13;100575.13;;;4.47;100.00
7026;BME280;3554;42.132;24.786;2023-02-15T01:37:40;100577.75;;;4.52;100.00
7026;BME280;3554;42.132;24.786;2023-02-15T01:40:10;100576.88;;;4.50;100.00
7026;BME280;3554;42.132;24.786;2023-02-15T01:42:38;100581.19;;;4.45;100.00
7026;BME280;3554;42.132;24.786;2023-02-15T01:45:18;100551.81;;;4.40;100.00
7026;BME280;3554;42.132;24.786;2023-02-15T01:47:50;100589.00;;;4.54;100.00
7026;BME280;3554;42.132;24.786;2023-02-15T01:50:22;100582.91;;;4.49;100.00
7026;BME280;3554;42.132;24.786;2023-02-15T01:52:53;100586.38;;;4.51;100.00
7026;BME280;3554;42.132;24.786;2023-02-15T01:55:24;100591.56;;;4.43;100.00
7026;BME280;3554;42.132;24.786;2023-02-15T01:57:51;100599.34;;;4.52;100.00
7026;BME280;3554;42.132;24.786;2023-02-15T02:00:20;100607.09;;;4.48;100.00
7026;BME280;3554;42.132;24.786;2023-02-15T02:02:49;100607.94;;;4.44;100.00
7026;BME280;3554;42.132;24.786;2023-02-15T02:05:17;100620.06;;;4.45;100.00
7026;BME280;3554;42.132;24.786;2023-02-15T02:07:45;100617.44;;;4.37;100.00
7026;BME280;3554;42.132;24.786;2023-02-15T02:10:16;100599.25;;;4.26;100.00
7026;BME280;3554;42.132;24.786;2023-02-15T02:12:45;100573.25;;;4.08;100.00
7026;BME280;3554;42.132;24.786;2023-02-15T02:15:13;100604.44;;;4.31;100.00
7026;BME280;3554;42.132;24.786;2023-02-15T02:17:51;100609.56;;;4.22;100.00
7026;BME280;3554;42.132;24.786;2023-02-15T02:20:51;100617.38;;;4.25;100.00
7026;BME280;3554;42.132;24.786;2023-02-15T02:23:39;100619.09;;;4.27;100.00
7026;BME280;3554;42.132;24.786;2023-02-15T02:26:28;100614.75;;;4.20;100.00
7026;BME280;3554;42.132;24.786;2023-02-15T02:29:30;100620.81;;;4.21;100.00
7026;BME280;3554;42.132;24.786;2023-02-15T02:34:59;100616.50;;;4.23;100.00
7026;BME280;3554;42.132;24.786;2023-02-15T02:37:30;100609.56;;;4.22;100.00
7026;BME280;3554;42.132;24.786;2023-02-15T02:40:05;100614.75;;;4.20;100.00
7026;BME280;3554;42.132;24.786;2023-02-15T02:42:38;100619.09;;;4.21;100.00
7026;BME280;3554;42.132;24.786;2023-02-15T02:45:07;100625.13;;;4.16;100.00
7026;BME280;3554;42.132;24.786;2023-02-15T02:47:39;100574.03;;;3.89;100.00
7026;BME280;3554;42.132;24.786;2023-02-15T02:50:13;100607.81;;;4.15;100.00
7026;BME280;3554;42.132;24.786;2023-02-15T02:52:42;100625.13;;;4.20;100.00
7026;BME280;3554;42.132;24.786;2023-02-15T02:55:13;100624.28;;;4.20;100.00
7026;BME280;3554;42.132;24.786;2023-02-15T02:57:46;100619.09;;;4.21;100.00
7026;BME280;3554;42.132;24.786;2023-02-15T03:00:17;100632.06;;;4.20;100.00
7026;BME280;3554;42.132;24.786;2023-02-15T03:02:47;100623.41;;;4.24;100.00
7026;BME280;3554;42.132;24.786;2023-02-15T03:05:21;100632.03;;;4.18;100.00
7026;BME280;3554;42.132;24.786;2023-02-15T03:07:51;100632.00;;;4.14;100.00
7026;BME280;3554;42.132;24.786;2023-02-15T03:10:22;100633.72;;;4.07;100.00
7026;BME280;3554;42.132;24.786;2023-02-15T03:12:51;100629.41;;;4.15;100.00
7026;BME280;3554;42.132;24.786;2023-02-15T03:15:20;100632.81;;;4.05;100.00
7026;BME280;3554;42.132;24.786;2023-02-15T03:17:51;100644.13;;;4.16;100.00
7026;BME280;3554;42.132;24.786;2023-02-15T03:20:24;100646.69;;;4.15;100.00
7026;BME280;3554;42.132;24.786;2023-02-15T03:22:55;100643.19;;;4.07;100.00
7026;BME280;3554;42.132;24.786;2023-02-15T03:25:27;100635.44;;;4.08;100.00
7026;BME280;3554;42.132;24.786;2023-02-15T03:28:00;100644.91;;;4.06;100.00
7026;BME280;3554;42.132;24.786;2023-02-15T03:30:29;100643.19;;;4.04;100.00
7026;BME280;3554;42.132;24.786;2023-02-15T03:32:59;100638.88;;;4.07;100.00
7026;BME280;3554;42.132;24.786;2023-02-15T03:35:33;100632.78;;;4.02;100.00
7026;BME280;3554;42.132;24.786;2023-02-15T03:38:06;100612.88;;;3.92;100.00
7026;BME280;3554;42.132;24.786;2023-02-15T03:40:37;100571.34;;;3.73;100.00
7026;BME280;3554;42.132;24.786;2023-02-15T03:43:27;100633.72;;;4.10;100.00
7026;BME280;3554;42.132;24.786;2023-02-15T03:46:01;100629.31;;;3.97;100.00
7026;BME280;3554;42.132;24.786;2023-02-15T03:48:36;100638.84;;;4.01;100.00
7026;BME280;3554;42.132;24.786;2023-02-15T03:51:08;100644.00;;;4.00;100.00
7026;BME280;3554;42.132;24.786;2023-02-15T03:54:07;100639.66;;;3.94;100.00
7026;BME280;3554;42.132;24.786;2023-02-15T03:56:36;100637.13;;;4.05;100.00
7026;BME280;3554;42.132;24.786;2023-02-15T03:59:04;100626.75;;;4.02;100.00
7026;BME280;3554;42.132;24.786;2023-02-15T04:01:56;100639.72;;;4.00;100.00
7026;BME280;3554;42.132;24.786;2023-02-15T04:04:32;100645.78;;;4.04;100.00
7026;BME280;3554;42.132;24.786;2023-02-15T04:07:00;100645.78;;;4.04;100.00
7026;BME280;3554;42.132;24.786;2023-02-15T04:09:27;100650.09;;;4.09;100.00
7026;BME280;3554;42.132;24.786;2023-02-15T04:12:11;100656.16;;;4.11;100.00
7026;BME280;3554;42.132;24.786;2023-02-15T04:14:38;100653.59;;;4.13;100.00
7026;BME280;3554;42.132;24.786;2023-02-15T04:17:22;100654.44;;;4.13;100.00
7026;BME280;3554;42.132;24.786;2023-02-15T04:19:49;100651.03;;;4.14;100.00
7026;BME280;3554;42.132;24.786;2023-02-15T04:22:34;100660.50;;;4.12;100.00
7026;BME280;3554;42.132;24.786;2023-02-15T04:25:18;100655.28;;;4.06;100.00
7026;BME280;3554;42.132;24.786;2023-02-15T04:27:47;100648.31;;;3.93;100.00
7026;BME280;3554;42.132;24.786;2023-02-15T04:30:16;100658.69;;;3.96;100.00
7026;BME280;3554;42.132;24.786;2023-02-15T04:32:43;100662.09;;;3.94;100.00
7026;BME280;3554;42.132;24.786;2023-02-15T04:35:10;100675.03;;;3.92;100.00
7026;BME280;3554;42.132;24.786;2023-02-15T04:37:39;100646.50;;;3.86;100.00
7026;BME280;3554;42.132;24.786;2023-02-15T04:40:07;100681.09;;;3.91;100.00
7026;BME280;3554;42.132;24.786;2023-02-15T04:42:34;100675.88;;;3.88;100.00
7026;BME280;3554;42.132;24.786;2023-02-15T04:45:01;100672.44;;;3.92;100.00
7026;BME280;3554;42.132;24.786;2023-02-15T04:47:28;100684.56;;;3.93;100.00
7026;BME280;3554;42.132;24.786;2023-02-15T04:49:55;100687.09;;;3.87;100.00
7026;BME280;3554;42.132;24.786;2023-02-15T04:52:22;100665.41;;;3.73;100.00
7026;BME280;3554;42.132;24.786;2023-02-15T04:54:50;100698.34;;;3.89;100.00
7026;BME280;3554;42.132;24.786;2023-02-15T04:57:17;100693.97;;;3.87;100.00
7026;BME280;3554;42.132;24.786;2023-02-15T04:59:44;100696.56;;;3.81;100.00
7026;BME280;3554;42.132;24.786;2023-02-15T05:02:10;100699.97;;;3.77;100.00
7026;BME280;3554;42.132;24.786;2023-02-15T05:04:37;100702.50;;;3.71;100.00
7026;BME280;3554;42.132;24.786;2023-02-15T05:07:04;100710.31;;;3.78;100.00
7026;BME280;3554;42.132;24.786;2023-02-15T05:09:30;100708.53;;;3.71;100.00
7026;BME280;3554;42.132;24.786;2023-02-15T05:11:59;100707.72;;;3.77;100.00
7026;BME280;3554;42.132;24.786;2023-02-15T05:14:25;100713.78;;;3.77;100.00
7026;BME280;3554;42.132;24.786;2023-02-15T05:16:52;100710.31;;;3.78;100.00
7026;BME280;3554;42.132;24.786;2023-02-15T05:19:20;100725.78;;;3.71;100.00
7026;BME280;3554;42.132;24.786;2023-02-15T05:21:48;100728.38;;;3.68;100.00
7026;BME280;3554;42.132;24.786;2023-02-15T05:24:15;100730.94;;;3.68;100.00
7026;BME280;3554;42.132;24.786;2023-02-15T05:27:01;100727.56;;;3.76;100.00
7026;BME280;3554;42.132;24.786;2023-02-15T05:29:45;100731.84;;;3.74;100.00
7026;BME280;3554;42.132;24.786;2023-02-15T05:32:12;100736.16;;;3.72;100.00
7026;BME280;3554;42.132;24.786;2023-02-15T05:34:39;100742.28;;;3.80;100.00
7026;BME280;3554;42.132;24.786;2023-02-15T05:37:06;100733.66;;;3.83;100.00
7026;BME280;3554;42.132;24.786;2023-02-15T05:39:33;100740.50;;;3.76;100.00
7026;BME280;3554;42.132;24.786;2023-02-15T05:42:02;100735.44;;;3.88;100.00
7026;BME280;3554;42.132;24.786;2023-02-15T05:44:29;100738.00;;;3.87;100.00
7026;BME280;3554;42.132;24.786;2023-02-15T05:46:55;100744.06;;;3.89;100.00
7026;BME280;3554;42.132;24.786;2023-02-15T05:49:22;100743.28;;;3.97;100.00
7026;BME280;3554;42.132;24.786;2023-02-15T05:51:49;100747.63;;;3.98;100.00
7026;BME280;3554;42.132;24.786;2023-02-15T05:54:16;100705.06;;;3.66;100.00
7026;BME280;3554;42.132;24.786;2023-02-15T05:56:42;100745.91;;;4.00;100.00
7026;BME280;3554;42.132;24.786;2023-02-15T05:59:10;100758.13;;;4.18;100.00
7026;BME280;3554;42.132;24.786;2023-02-15T06:01:38;100760.75;;;4.24;100.00
7026;BME280;3554;42.132;24.786;2023-02-15T06:04:04;100760.88;;;4.44;100.00
7026;BME280;3554;42.132;24.786;2023-02-15T06:06:31;100759.22;;;4.52;100.00
7026;BME280;3554;42.132;24.786;2023-02-15T06:08:59;100702.03;;;4.26;100.00
7026;BME280;3554;42.132;24.786;2023-02-15T06:11:26;100735.94;;;4.61;100.00
7026;BME280;3554;42.132;24.786;2023-02-15T06:13:53;100763.72;;;4.86;100.00
7026;BME280;3554;42.132;24.786;2023-02-15T06:16:21;100772.41;;;4.91;100.00
7026;BME280;3554;42.132;24.786;2023-02-15T06:18:48;100772.44;;;5.03;100.00
7026;BME280;3554;42.132;24.786;2023-02-15T06:21:15;100771.56;;;5.04;100.00
7026;BME280;3554;42.132;24.786;2023-02-15T06:23:41;100780.31;;;5.21;100.00
7026;BME280;3554;42.132;24.786;2023-02-15T06:26:08;100767.31;;;5.22;100.00
7026;BME280;3554;42.132;24.786;2023-02-15T06:28:35;100779.50;;;5.35;100.00
7026;BME280;3554;42.132;24.786;2023-02-15T06:31:02;100733.56;;;5.10;100.00
7026;BME280;3554;42.132;24.786;2023-02-15T06:33:30;100782.13;;;5.52;100.00
7026;BME280;3554;42.132;24.786;2023-02-15T06:35:59;100780.41;;;5.62;100.00
7026;BME280;3554;42.132;24.786;2023-02-15T06:38:25;100781.28;;;5.68;100.00
7026;BME280;3554;42.132;24.786;2023-02-15T06:40:52;100771.75;;;5.70;100.00
7026;BME280;3554;42.132;24.786;2023-02-15T06:43:19;100776.09;;;5.74;100.00
7026;BME280;3554;42.132;24.786;2023-02-15T06:45:46;100773.50;;;5.79;100.00
7026;BME280;3554;42.132;24.786;2023-02-15T06:48:13;100786.53;;;5.86;100.00
7026;BME280;3554;42.132;24.786;2023-02-15T06:50:41;100777.88;;;5.93;100.00
7026;BME280;3554;42.132;24.786;2023-02-15T06:53:08;100775.31;;;6.08;100.00
7026;BME280;3554;42.132;24.786;2023-02-15T06:55:34;100780.50;;;6.11;100.00
7026;BME280;3554;42.132;24.786;2023-02-15T06:58:01;100784.81;;;6.21;100.00
7026;BME280;3554;42.132;24.786;2023-02-15T07:00:28;100789.16;;;6.27;100.00
7026;BME280;3554;42.132;24.786;2023-02-15T07:02:55;100789.16;;;6.33;100.00
7026;BME280;3554;42.132;24.786;2023-02-15T07:05:23;100787.41;;;6.44;100.00
7026;BME280;3554;42.132;24.786;2023-02-15T07:07:51;100776.16;;;6.42;100.00
7026;BME280;3554;42.132;24.786;2023-02-15T07:10:18;100773.50;;;6.48;100.00
7026;BME280;3554;42.132;24.786;2023-02-15T07:12:45;100766.59;;;6.55;100.00
7026;BME280;3554;42.132;24.786;2023-02-15T07:15:13;100772.66;;;6.66;100.00
7026;BME280;3554;42.132;24.786;2023-02-15T07:17:40;100771.75;;;6.70;100.00
7026;BME280;3554;42.132;24.786;2023-02-15T07:20:09;100758.72;;;6.71;100.00
7026;BME280;3554;42.132;24.786;2023-02-15T07:22:37;100779.50;;;6.86;100.00
7026;BME280;3554;42.132;24.786;2023-02-15T07:25:08;100768.22;;;6.87;100.00
7026;BME280;3554;42.132;24.786;2023-02-15T07:27:35;100756.06;;;6.88;100.00
7026;BME280;3554;42.132;24.786;2023-02-15T07:30:02;100750.03;;;6.89;100.00
7026;BME280;3554;42.132;24.786;2023-02-15T07:32:29;100759.50;;;7.05;100.00
7026;BME280;3554;42.132;24.786;2023-02-15T07:34:57;100762.91;;;7.16;100.00
7026;BME280;3554;42.132;24.786;2023-02-15T07:37:24;100726.56;;;6.87;100.00
7026;BME280;3554;42.132;24.786;2023-02-15T07:39:51;100756.88;;;7.06;100.00
7026;BME280;3554;42.132;24.786;2023-02-15T07:42:19;100769.00;;;7.09;100.00
7026;BME280;3554;42.132;24.786;2023-02-15T07:44:47;100775.03;;;7.20;100.00
7026;BME280;3554;42.132;24.786;2023-02-15T07:47:14;100779.34;;;7.28;100.00
7026;BME280;3554;42.132;24.786;2023-02-15T07:49:40;100781.03;;;7.37;100.00
7026;BME280;3554;42.132;24.786;2023-02-15T07:52:07;100784.53;;;7.33;100.00
7026;BME280;3554;42.132;24.786;2023-02-15T07:54:34;100783.59;;;7.43;100.00
7026;BME280;3554;42.132;24.786;2023-02-15T07:57:01;100785.34;;;7.44;100.00
7026;BME280;3554;42.132;24.786;2023-02-15T07:59:29;100780.97;;;7.50;100.00
7026;BME280;3554;42.132;24.786;2023-02-15T08:01:56;100741.09;;;7.39;100.00
7026;BME280;3554;42.132;24.786;2023-02-15T08:04:23;100784.34;;;7.66;100.00
7026;BME280;3554;42.132;24.786;2023-02-15T08:06:52;100779.13;;;7.65;100.00
7026;BME280;3554;42.132;24.786;2023-02-15T08:09:19;100772.97;;;7.75;100.00
7026;BME280;3554;42.132;24.786;2023-02-15T08:11:47;100759.09;;;7.73;100.00
7026;BME280;3554;42.132;24.786;2023-02-15T08:14:15;100769.38;;;7.92;100.00
7026;BME280;3554;42.132;24.786;2023-02-15T08:16:45;100753.88;;;7.77;100.00
7026;BME280;3554;42.132;24.786;2023-02-15T08:19:16;100784.19;;;7.92;100.00
7026;BME280;3554;42.132;24.786;2023-02-15T08:21:45;100772.81;;;7.99;100.00
7026;BME280;3554;42.132;24.786;2023-02-15T08:24:16;100777.91;;;8.14;100.00
7026;BME280;3554;42.132;24.786;2023-02-15T08:26:43;100781.47;;;8.05;100.00
7026;BME280;3554;42.132;24.786;2023-02-15T08:29:12;100791.78;;;8.16;100.00
7026;BME280;3554;42.132;24.786;2023-02-15T08:31:39;100777.88;;;8.18;100.00
7026;BME280;3554;42.132;24.786;2023-02-15T08:34:08;100784.00;;;8.13;100.00
7026;BME280;3554;42.132;24.786;2023-02-15T08:36:35;100794.31;;;8.32;100.00
7026;BME280;3554;42.132;24.786;2023-02-15T08:39:04;100797.78;;;8.31;100.00
7026;BME280;3554;42.132;24.786;2023-02-15T08:41:32;100780.41;;;8.30;100.00
7026;BME280;3554;42.132;24.786;2023-02-15T08:44:00;100790.84;;;8.30;100.00
7026;BME280;3554;42.132;24.786;2023-02-15T08:46:30;100787.22;;;8.46;100.00
7026;BME280;3554;42.132;24.786;2023-02-15T08:48:57;100768.16;;;8.40;100.00
7026;BME280;3554;42.132;24.786;2023-02-15T08:51:27;100790.50;;;8.67;100.00
7026;BME280;3554;42.132;24.786;2023-02-15T08:53:56;100787.84;;;8.71;100.00
7026;BME280;3554;42.132;24.786;2023-02-15T08:56:25;100784.44;;;8.64;100.00
7026;BME280;3554;42.132;24.786;2023-02-15T08:58:53;100780.75;;;8.82;100.00
7026;BME280;3554;42.132;24.786;2023-02-15T09:01:22;100778.09;;;8.87;100.00
7026;BME280;3554;42.132;24.786;2023-02-15T09:03:51;100726.13;;;8.65;100.00
7026;BME280;3554;42.132;24.786;2023-02-15T09:06:19;100795.47;;;8.91;100.00
7026;BME280;3554;42.132;24.786;2023-02-15T09:08:48;100802.41;;;8.90;100.00
7026;BME280;3554;42.132;24.786;2023-02-15T09:11:16;100778.22;;;8.76;100.00
7026;BME280;3554;42.132;24.786;2023-02-15T09:13:48;100775.41;;;8.93;100.00
7026;BME280;3554;42.132;24.786;2023-02-15T09:16:15;100784.75;;;9.15;100.00
7026;BME280;3554;42.132;24.786;2023-02-15T09:18:43;100774.28;;;9.13;100.00
7026;BME280;3554;42.132;24.786;2023-02-15T09:21:12;100764.66;;;9.20;100.00
7026;BME280;3554;42.132;24.786;2023-02-15T09:23:40;100779.53;;;9.12;100.00
7026;BME280;3554;42.132;24.786;2023-02-15T09:26:10;100769.91;;;9.18;100.00
7026;BME280;3554;42.132;24.786;2023-02-15T09:28:37;100767.47;;;9.03;100.00
7026;BME280;3554;42.132;24.786;2023-02-15T09:31:09;100769.06;;;9.16;100.00
7026;BME280;3554;42.132;24.786;2023-02-15T09:33:37;100771.53;;;9.27;100.00
7026;BME280;3554;42.132;24.786;2023-02-15T09:36:05;100769.59;;;9.41;100.00
7026;BME280;3554;42.132;24.786;2023-02-15T09:38:32;100764.41;;;9.36;100.00
7026;BME280;3554;42.132;24.786;2023-02-15T09:41:11;100764.06;;;9.62;100.00
7026;BME280;3554;42.132;24.786;2023-02-15T09:43:49;100773.50;;;9.73;100.00
7026;BME280;3554;42.132;24.786;2023-02-15T09:46:31;100767.28;;;9.79;100.00
7026;BME280;3554;42.132;24.786;2023-02-15T09:49:07;100759.50;;;9.76;100.00
7026;BME280;3554;42.132;24.786;2023-02-15T09:51:56;100754.38;;;9.68;99.55
7026;BME280;3554;42.132;24.786;2023-02-15T09:54:36;100757.56;;;9.89;99.38
7026;BME280;3554;42.132;24.786;2023-02-15T09:57:10;100752.41;;;9.84;98.18
7026;BME280;3554;42.132;24.786;2023-02-15T09:59:45;100749.50;;;10.01;97.52
7026;BME280;3554;42.132;24.786;2023-02-15T10:02:26;100755.53;;;10.09;94.61
7026;BME280;3554;42.132;24.786;2023-02-15T10:05:08;100750.16;;;10.18;97.99
7026;BME280;3554;42.132;24.786;2023-02-15T10:07:56;100743.31;;;10.06;96.68
7026;BME280;3554;42.132;24.786;2023-02-15T10:10:31;100734.47;;;10.16;97.34
7026;BME280;3554;42.132;24.786;2023-02-15T10:13:12;100736.09;;;10.22;97.40
7026;BME280;3554;42.132;24.786;2023-02-15T10:15:55;100731.72;;;10.22;95.50
7026;BME280;3554;42.132;24.786;2023-02-15T10:18:48;100729.66;;;10.41;95.02
7026;BME280;3554;42.132;24.786;2023-02-15T10:21:27;100725.28;;;10.41;90.81
7026;BME280;3554;42.132;24.786;2023-02-15T10:24:25;100731.31;;;10.46;88.46
7026;BME280;3554;42.132;24.786;2023-02-15T10:26:59;100723.31;;;10.52;88.63
7026;BME280;3554;42.132;24.786;2023-02-15T10:29:33;100715.66;;;10.43;86.80
7026;BME280;3554;42.132;24.786;2023-02-15T10:32:10;100711.22;;;10.47;87.28
7026;BME280;3554;42.132;24.786;2023-02-15T10:34:46;100703.47;;;10.42;87.75
7026;BME280;3554;42.132;24.786;2023-02-15T10:37:29;100710.28;;;10.51;86.75
7026;BME280;3554;42.132;24.786;2023-02-15T10:40:08;100698.19;;;10.44;85.56
7026;BME280;3554;42.132;24.786;2023-02-15T10:42:45;100697.94;;;10.56;85.98
7026;BME280;3554;42.132;24.786;2023-02-15T10:45:23;100682.22;;;10.57;83.91
7026;BME280;3554;42.132;24.786;2023-02-15T10:48:16;100692.69;;;10.59;83.56
7026;BME280;3554;42.132;24.786;2023-02-15T10:50:48;100704.78;;;10.63;85.44
7026;BME280;3554;42.132;24.786;2023-02-15T10:56:16;100670.16;;;10.49;82.92
7026;BME280;3554;42.132;24.786;2023-02-15T10:58:57;100683.78;;;10.67;83.88
7026;BME280;3554;42.132;24.786;2023-02-15T11:01:32;100690.69;;;10.71;83.50
7026;BME280;3554;42.132;24.786;2023-02-15T11:07:04;100685.03;;;10.90;83.15
7026;BME280;3554;42.132;24.786;2023-02-15T11:09:37;100680.59;;;10.95;80.31
7026;BME280;3554;42.132;24.786;2023-02-15T11:12:10;100675.59;;;10.82;80.28
7026;BME280;3554;42.132;24.786;2023-02-15T11:14:44;100662.53;;;10.81;80.01
7026;BME280;3554;42.132;24.786;2023-02-15T11:17:18;100656.19;;;10.93;78.45
7026;BME280;3554;42.132;24.786;2023-02-15T11:19:54;100672.31;;;11.14;77.98
7026;BME280;3554;42.132;24.786;2023-02-15T11:22:22;100660.44;;;10.97;76.56
7026;BME280;3554;42.132;24.786;2023-02-15T11:24:49;100668.69;;;10.34;78.63
7026;BME280;3554;42.132;24.786;2023-02-15T11:27:20;100661.22;;;10.60;80.71
7026;BME280;3554;42.132;24.786;2023-02-15T11:29:53;100649.53;;;10.76;78.73
7026;BME280;3554;42.132;24.786;2023-02-15T11:32:25;100635.50;;;10.79;77.57
7026;BME280;3554;42.132;24.786;2023-02-15T11:34:57;100649.28;;;10.89;76.36
7026;BME280;3554;42.132;24.786;2023-02-15T11:37:31;100651.78;;;10.95;75.11
7026;BME280;3554;42.132;24.786;2023-02-15T11:40:00;100647.97;;;11.08;74.70
7026;BME280;3554;42.132;24.786;2023-02-15T11:42:30;100648.47;;;11.25;73.11
7026;BME280;3554;42.132;24.786;2023-02-15T11:45:01;100633.78;;;11.18;73.39
7026;BME280;3554;42.132;24.786;2023-02-15T11:47:30;100645.06;;;11.21;73.21
7026;BME280;3554;42.132;24.786;2023-02-15T11:49:57;100632.72;;;11.26;73.05
7026;BME280;3554;42.132;24.786;2023-02-15T11:52:24;100641.47;;;11.25;74.14
7026;BME280;3554;42.132;24.786;2023-02-15T11:54:52;100632.59;;;11.31;73.06
7026;BME280;3554;42.132;24.786;2023-02-15T11:57:23;100628.56;;;11.18;71.94
7026;BME280;3554;42.132;24.786;2023-02-15T11:59:53;100638.84;;;11.25;71.33
7026;BME280;3554;42.132;24.786;2023-02-15T12:02:22;100583.44;;;11.05;70.79
7026;BME280;3554;42.132;24.786;2023-02-15T12:04:55;100585.78;;;11.16;70.72
7026;BME280;3554;42.132;24.786;2023-02-15T12:07:27;100615.94;;;11.33;70.13
7026;BME280;3554;42.132;24.786;2023-02-15T12:10:00;100623.53;;;11.44;70.08
7026;BME280;3554;42.132;24.786;2023-02-15T12:12:31;100608.75;;;11.41;69.84
7026;BME280;3554;42.132;24.786;2023-02-15T12:14:59;100504.34;;;10.88;69.06
7026;BME280;3554;42.132;24.786;2023-02-15T12:17:28;100616.56;;;11.44;68.69
7026;BME280;3554;42.132;24.786;2023-02-15T12:20:00;100608.78;;;11.40;68.79
7026;BME280;3554;42.132;24.786;2023-02-15T12:22:29;100618.22;;;11.47;69.61
7026;BME280;3554;42.132;24.786;2023-02-15T12:24:59;100615.28;;;11.59;68.51
7026;BME280;3554;42.132;24.786;2023-02-15T12:27:28;100622.13;;;11.66;66.95
7026;BME280;3554;42.132;24.786;2023-02-15T12:29:59;100615.16;;;11.66;65.49
7026;BME280;3554;42.132;24.786;2023-02-15T12:32:29;100616.00;;;11.67;66.17
7026;BME280;3554;42.132;24.786;2023-02-15T12:35:02;100612.94;;;11.48;65.50
7026;BME280;3554;42.132;24.786;2023-02-15T12:37:35;100575.66;;;11.01;66.28
7026;BME280;3554;42.132;24.786;2023-02-15T12:40:18;100607.78;;;11.45;67.45
7026;BME280;3554;42.132;24.786;2023-02-15T12:42:45;100603.00;;;11.61;66.75
7026;BME280;3554;42.132;24.786;2023-02-15T12:45:24;100605.38;;;11.73;65.98
7026;BME280;3554;42.132;24.786;2023-02-15T12:48:09;100601.19;;;11.64;66.79
7026;BME280;3554;42.132;24.786;2023-02-15T12:50:38;100600.97;;;11.73;65.21
7026;BME280;3554;42.132;24.786;2023-02-15T12:53:07;100605.25;;;11.77;62.21
7026;BME280;3554;42.132;24.786;2023-02-15T12:55:34;100603.28;;;11.85;62.16
7026;BME280;3554;42.132;24.786;2023-02-15T12:58:12;100598.06;;;11.84;62.80
7026;BME280;3554;42.132;24.786;2023-02-15T13:00:41;100605.22;;;11.79;63.12
7026;BME280;3554;42.132;24.786;2023-02-15T13:03:16;100596.50;;;11.77;63.64
7026;BME280;3554;42.132;24.786;2023-02-15T13:05:46;100597.94;;;11.90;63.13
7026;BME280;3554;42.132;24.786;2023-02-15T13:08:17;100589.13;;;11.91;63.59
7026;BME280;3554;42.132;24.786;2023-02-15T13:10:53;100591.69;;;11.94;63.46
7026;BME280;3554;42.132;24.786;2023-02-15T13:13:23;100587.56;;;11.84;63.13
7026;BME280;3554;42.132;24.786;2023-02-15T13:15:52;100596.03;;;11.95;61.54
7026;BME280;3554;42.132;24.786;2023-02-15T13:18:28;100597.63;;;12.01;60.78
7026;BME280;3554;42.132;24.786;2023-02-15T13:20:58;100591.38;;;12.06;59.62
7026;BME280;3554;42.132;24.786;2023-02-15T13:23:29;100582.03;;;11.95;59.92
7026;BME280;3554;42.132;24.786;2023-02-15T13:25:59;100589.91;;;11.96;55.94
7026;BME280;3554;42.132;24.786;2023-02-15T13:28:36;100598.56;;;11.98;56.37